South Harwich, Massachusetts
Current Conditions -  °F | °C
As of 7:52 AM on Wednesday 22 Oct 2014 (Local Time) from KCQX Reporting Station
Haze Haze  
Wind Chill: 57°   Ceiling: 400
Heat Index: 57°   Visibility: 6mi
Dew Point: 56°   Wind: 13mph
Humidity: 96%   Direction: 40°NE
Pressure: 29.91"   Gusts: 24mph
Location:  41.67°N, 70.04°W
Report Text: KCQX 221152Z AUTO 04011G21KT 6SM BR OVC004 14/13 A2991 RMK AO2 SLP131 60000 70003 T01390133 10139 20122 58004
Loading
Personal Weather Stations






























Interactive Weather Map
Tropical Storm Tracking
New forecast layout! Learn more

10-Day Weather Forecast

Advertisements
Track Severe Weather on mobile